sensor_id;sensor_type;location;lat;lon;timestamp;P1;durP1;ratioP1;P2;durP2;ratioP2
23410;SDS011;11878;51.774;7.220;2024-03-07T00:01:28;40.33;;;15.73;;
23410;SDS011;11878;51.774;7.220;2024-03-07T00:04:30;38.37;;;16.93;;
23410;SDS011;11878;51.774;7.220;2024-03-07T00:07:32;38.80;;;16.13;;
23410;SDS011;11878;51.774;7.220;2024-03-07T00:10:34;35.87;;;15.23;;
23410;SDS011;11878;51.774;7.220;2024-03-07T00:13:38;37.03;;;16.60;;
23410;SDS011;11878;51.774;7.220;2024-03-07T00:16:40;40.90;;;17.07;;
23410;SDS011;11878;51.774;7.220;2024-03-07T00:19:42;35.13;;;14.47;;
23410;SDS011;11878;51.774;7.220;2024-03-07T00:22:45;38.50;;;15.77;;
23410;SDS011;11878;51.774;7.220;2024-03-07T00:25:46;35.23;;;15.77;;
23410;SDS011;11878;51.774;7.220;2024-03-07T00:28:50;32.03;;;14.97;;
23410;SDS011;11878;51.774;7.220;2024-03-07T00:31:52;41.60;;;15.37;;
23410;SDS011;11878;51.774;7.220;2024-03-07T00:34:55;37.10;;;14.20;;
23410;SDS011;11878;51.774;7.220;2024-03-07T00:37:58;40.53;;;14.97;;
23410;SDS011;11878;51.774;7.220;2024-03-07T00:41:00;30.37;;;14.10;;
23410;SDS011;11878;51.774;7.220;2024-03-07T00:44:01;36.23;;;14.97;;
23410;SDS011;11878;51.774;7.220;2024-03-07T00:47:03;34.00;;;14.47;;
23410;SDS011;11878;51.774;7.220;2024-03-07T00:50:06;36.93;;;15.27;;
23410;SDS011;11878;51.774;7.220;2024-03-07T00:53:10;38.60;;;16.27;;
23410;SDS011;11878;51.774;7.220;2024-03-07T00:56:12;39.33;;;15.03;;
23410;SDS011;11878;51.774;7.220;2024-03-07T00:59:14;35.43;;;15.07;;
23410;SDS011;11878;51.774;7.220;2024-03-07T01:02:16;43.70;;;14.60;;
23410;SDS011;11878;51.774;7.220;2024-03-07T01:05:21;34.10;;;14.93;;
23410;SDS011;11878;51.774;7.220;2024-03-07T01:08:23;34.67;;;14.87;;
23410;SDS011;11878;51.774;7.220;2024-03-07T01:11:25;31.07;;;13.63;;
23410;SDS011;11878;51.774;7.220;2024-03-07T01:14:27;34.07;;;14.63;;
23410;SDS011;11878;51.774;7.220;2024-03-07T01:17:29;37.57;;;14.17;;
23410;SDS011;11878;51.774;7.220;2024-03-07T01:20:31;29.63;;;13.13;;
23410;SDS011;11878;51.774;7.220;2024-03-07T01:23:33;40.37;;;14.47;;
23410;SDS011;11878;51.774;7.220;2024-03-07T01:26:35;35.57;;;12.47;;
23410;SDS011;11878;51.774;7.220;2024-03-07T01:29:37;31.80;;;14.20;;
23410;SDS011;11878;51.774;7.220;2024-03-07T01:32:42;34.73;;;15.07;;
23410;SDS011;11878;51.774;7.220;2024-03-07T01:35:45;34.33;;;14.67;;
23410;SDS011;11878;51.774;7.220;2024-03-07T01:38:47;28.30;;;13.00;;
23410;SDS011;11878;51.774;7.220;2024-03-07T01:41:49;32.63;;;13.83;;
23410;SDS011;11878;51.774;7.220;2024-03-07T01:44:51;33.57;;;15.43;;
23410;SDS011;11878;51.774;7.220;2024-03-07T01:47:53;38.17;;;14.63;;
23410;SDS011;11878;51.774;7.220;2024-03-07T01:50:57;38.57;;;15.90;;
23410;SDS011;11878;51.774;7.220;2024-03-07T01:54:00;32.83;;;13.70;;
23410;SDS011;11878;51.774;7.220;2024-03-07T01:57:04;32.67;;;13.93;;
23410;SDS011;11878;51.774;7.220;2024-03-07T02:00:06;33.70;;;14.83;;
23410;SDS011;11878;51.774;7.220;2024-03-07T02:03:10;42.83;;;15.67;;
23410;SDS011;11878;51.774;7.220;2024-03-07T02:06:12;29.70;;;12.77;;
23410;SDS011;11878;51.774;7.220;2024-03-07T02:09:14;29.80;;;14.07;;
23410;SDS011;11878;51.774;7.220;2024-03-07T02:12:16;27.10;;;11.83;;
23410;SDS011;11878;51.774;7.220;2024-03-07T02:15:17;32.17;;;13.30;;
23410;SDS011;11878;51.774;7.220;2024-03-07T02:18:20;27.90;;;13.70;;
23410;SDS011;11878;51.774;7.220;2024-03-07T02:21:22;30.27;;;14.00;;
23410;SDS011;11878;51.774;7.220;2024-03-07T02:24:24;28.83;;;13.40;;
23410;SDS011;11878;51.774;7.220;2024-03-07T02:27:26;28.73;;;13.93;;
23410;SDS011;11878;51.774;7.220;2024-03-07T02:30:28;26.13;;;12.67;;
23410;SDS011;11878;51.774;7.220;2024-03-07T02:33:33;32.23;;;14.80;;
23410;SDS011;11878;51.774;7.220;2024-03-07T02:36:35;27.53;;;12.30;;
23410;SDS011;11878;51.774;7.220;2024-03-07T02:39:37;36.87;;;14.37;;
23410;SDS011;11878;51.774;7.220;2024-03-07T02:42:38;30.40;;;13.27;;
23410;SDS011;11878;51.774;7.220;2024-03-07T02:45:41;35.17;;;15.03;;
23410;SDS011;11878;51.774;7.220;2024-03-07T02:48:43;34.90;;;15.13;;
23410;SDS011;11878;51.774;7.220;2024-03-07T02:51:45;32.47;;;12.97;;
23410;SDS011;11878;51.774;7.220;2024-03-07T02:54:47;31.60;;;13.77;;
23410;SDS011;11878;51.774;7.220;2024-03-07T02:57:49;30.03;;;14.00;;
23410;SDS011;11878;51.774;7.220;2024-03-07T03:00:56;30.77;;;15.40;;
23410;SDS011;11878;51.774;7.220;2024-03-07T03:04:01;30.10;;;13.83;;
23410;SDS011;11878;51.774;7.220;2024-03-07T03:07:02;35.47;;;14.80;;
23410;SDS011;11878;51.774;7.220;2024-03-07T03:10:05;26.83;;;14.73;;
23410;SDS011;11878;51.774;7.220;2024-03-07T03:13:10;30.83;;;14.60;;
23410;SDS011;11878;51.774;7.220;2024-03-07T03:16:12;33.63;;;14.43;;
23410;SDS011;11878;51.774;7.220;2024-03-07T03:19:14;32.63;;;14.67;;
23410;SDS011;11878;51.774;7.220;2024-03-07T03:22:16;30.43;;;14.33;;
23410;SDS011;11878;51.774;7.220;2024-03-07T03:25:20;32.17;;;14.97;;
23410;SDS011;11878;51.774;7.220;2024-03-07T03:28:22;33.93;;;13.47;;
23410;SDS011;11878;51.774;7.220;2024-03-07T03:31:24;31.83;;;13.53;;
23410;SDS011;11878;51.774;7.220;2024-03-07T03:34:26;32.47;;;14.03;;
23410;SDS011;11878;51.774;7.220;2024-03-07T03:37:28;32.30;;;13.90;;
23410;SDS011;11878;51.774;7.220;2024-03-07T03:40:31;33.87;;;13.90;;
23410;SDS011;11878;51.774;7.220;2024-03-07T03:43:33;37.40;;;14.10;;
23410;SDS011;11878;51.774;7.220;2024-03-07T03:46:34;30.00;;;12.77;;
23410;SDS011;11878;51.774;7.220;2024-03-07T03:49:36;31.33;;;13.53;;
23410;SDS011;11878;51.774;7.220;2024-03-07T03:52:41;27.33;;;12.23;;
23410;SDS011;11878;51.774;7.220;2024-03-07T03:55:43;29.10;;;13.57;;
23410;SDS011;11878;51.774;7.220;2024-03-07T03:58:45;25.87;;;12.13;;
23410;SDS011;11878;51.774;7.220;2024-03-07T04:01:48;37.27;;;14.47;;
23410;SDS011;11878;51.774;7.220;2024-03-07T04:04:50;26.70;;;11.73;;
23410;SDS011;11878;51.774;7.220;2024-03-07T04:07:53;30.07;;;12.17;;
23410;SDS011;11878;51.774;7.220;2024-03-07T04:10:55;26.50;;;12.03;;
23410;SDS011;11878;51.774;7.220;2024-03-07T04:13:57;30.07;;;14.23;;
23410;SDS011;11878;51.774;7.220;2024-03-07T04:16:59;27.87;;;12.73;;
23410;SDS011;11878;51.774;7.220;2024-03-07T04:20:02;26.70;;;13.33;;
23410;SDS011;11878;51.774;7.220;2024-03-07T04:23:07;26.77;;;12.57;;
23410;SDS011;11878;51.774;7.220;2024-03-07T04:26:12;26.70;;;12.27;;
23410;SDS011;11878;51.774;7.220;2024-03-07T04:29:15;31.43;;;13.20;;
23410;SDS011;11878;51.774;7.220;2024-03-07T04:32:17;29.00;;;12.80;;
23410;SDS011;11878;51.774;7.220;2024-03-07T04:35:19;27.67;;;14.03;;
23410;SDS011;11878;51.774;7.220;2024-03-07T04:38:22;32.13;;;15.43;;
23410;SDS011;11878;51.774;7.220;2024-03-07T04:41:24;39.17;;;16.10;;
23410;SDS011;11878;51.774;7.220;2024-03-07T04:44:27;27.30;;;12.50;;
23410;SDS011;11878;51.774;7.220;2024-03-07T04:47:29;22.80;;;12.77;;
23410;SDS011;11878;51.774;7.220;2024-03-07T04:50:31;26.73;;;12.10;;
23410;SDS011;11878;51.774;7.220;2024-03-07T04:53:33;33.67;;;14.00;;
23410;SDS011;11878;51.774;7.220;2024-03-07T04:56:38;42.30;;;18.73;;
23410;SDS011;11878;51.774;7.220;2024-03-07T04:59:40;35.00;;;17.20;;
23410;SDS011;11878;51.774;7.220;2024-03-07T05:02:43;45.60;;;16.97;;
23410;SDS011;11878;51.774;7.220;2024-03-07T05:05:46;38.47;;;18.40;;
23410;SDS011;11878;51.774;7.220;2024-03-07T05:08:48;36.57;;;15.93;;
23410;SDS011;11878;51.774;7.220;2024-03-07T05:11:50;30.83;;;13.73;;
23410;SDS011;11878;51.774;7.220;2024-03-07T05:14:53;27.30;;;12.73;;
23410;SDS011;11878;51.774;7.220;2024-03-07T05:17:55;28.50;;;13.37;;
23410;SDS011;11878;51.774;7.220;2024-03-07T05:20:57;34.13;;;12.80;;
23410;SDS011;11878;51.774;7.220;2024-03-07T05:24:19;27.00;;;13.53;;
23410;SDS011;11878;51.774;7.220;2024-03-07T05:27:21;28.97;;;12.60;;
23410;SDS011;11878;51.774;7.220;2024-03-07T05:30:23;28.17;;;12.30;;
23410;SDS011;11878;51.774;7.220;2024-03-07T05:33:27;30.33;;;13.23;;
23410;SDS011;11878;51.774;7.220;2024-03-07T05:36:32;27.60;;;13.17;;
23410;SDS011;11878;51.774;7.220;2024-03-07T05:39:34;35.17;;;13.97;;
23410;SDS011;11878;51.774;7.220;2024-03-07T05:42:36;30.23;;;12.17;;
23410;SDS011;11878;51.774;7.220;2024-03-07T05:45:38;27.27;;;12.23;;
23410;SDS011;11878;51.774;7.220;2024-03-07T05:48:40;22.83;;;11.07;;
23410;SDS011;11878;51.774;7.220;2024-03-07T05:51:42;31.50;;;12.73;;
23410;SDS011;11878;51.774;7.220;2024-03-07T05:54:46;26.03;;;12.43;;
23410;SDS011;11878;51.774;7.220;2024-03-07T05:57:47;30.93;;;12.10;;
23410;SDS011;11878;51.774;7.220;2024-03-07T06:00:49;26.27;;;11.37;;
23410;SDS011;11878;51.774;7.220;2024-03-07T06:03:52;22.57;;;11.97;;
23410;SDS011;11878;51.774;7.220;2024-03-07T06:06:53;22.67;;;11.70;;
23410;SDS011;11878;51.774;7.220;2024-03-07T06:09:56;22.33;;;11.40;;
23410;SDS011;11878;51.774;7.220;2024-03-07T06:12:58;18.13;;;9.83;;
23410;SDS011;11878;51.774;7.220;2024-03-07T06:16:11;20.77;;;10.30;;
23410;SDS011;11878;51.774;7.220;2024-03-07T06:19:13;24.27;;;12.00;;
23410;SDS011;11878;51.774;7.220;2024-03-07T06:22:15;26.70;;;12.70;;
23410;SDS011;11878;51.774;7.220;2024-03-07T06:25:18;27.10;;;11.90;;
23410;SDS011;11878;51.774;7.220;2024-03-07T06:28:21;24.77;;;11.87;;
23410;SDS011;11878;51.774;7.220;2024-03-07T06:31:24;23.60;;;10.73;;
23410;SDS011;11878;51.774;7.220;2024-03-07T06:34:26;30.87;;;11.77;;
23410;SDS011;11878;51.774;7.220;2024-03-07T06:37:30;24.63;;;12.17;;
23410;SDS011;11878;51.774;7.220;2024-03-07T06:40:33;22.33;;;10.97;;
23410;SDS011;11878;51.774;7.220;2024-03-07T06:43:36;20.27;;;9.93;;
23410;SDS011;11878;51.774;7.220;2024-03-07T06:46:38;23.60;;;11.17;;
23410;SDS011;11878;51.774;7.220;2024-03-07T06:49:40;21.53;;;9.90;;
23410;SDS011;11878;51.774;7.220;2024-03-07T06:52:42;24.93;;;11.93;;
23410;SDS011;11878;51.774;7.220;2024-03-07T06:55:45;27.40;;;11.27;;
23410;SDS011;11878;51.774;7.220;2024-03-07T06:58:47;24.27;;;11.97;;
23410;SDS011;11878;51.774;7.220;2024-03-07T07:01:50;23.57;;;11.00;;
23410;SDS011;11878;51.774;7.220;2024-03-07T07:04:52;22.33;;;11.40;;
23410;SDS011;11878;51.774;7.220;2024-03-07T07:07:54;23.37;;;11.43;;
23410;SDS011;11878;51.774;7.220;2024-03-07T07:10:56;27.90;;;11.93;;
23410;SDS011;11878;51.774;7.220;2024-03-07T07:13:59;17.47;;;10.77;;
23410;SDS011;11878;51.774;7.220;2024-03-07T07:17:03;22.70;;;11.20;;
23410;SDS011;11878;51.774;7.220;2024-03-07T07:20:08;27.63;;;12.40;;
23410;SDS011;11878;51.774;7.220;2024-03-07T07:23:15;23.50;;;10.83;;
23410;SDS011;11878;51.774;7.220;2024-03-07T07:26:18;24.70;;;11.73;;
23410;SDS011;11878;51.774;7.220;2024-03-07T07:29:20;30.33;;;12.10;;
23410;SDS011;11878;51.774;7.220;2024-03-07T07:32:25;24.03;;;12.13;;
23410;SDS011;11878;51.774;7.220;2024-03-07T07:35:29;29.57;;;13.43;;
23410;SDS011;11878;51.774;7.220;2024-03-07T07:38:32;25.40;;;12.10;;
23410;SDS011;11878;51.774;7.220;2024-03-07T07:41:34;23.43;;;11.43;;
23410;SDS011;11878;51.774;7.220;2024-03-07T07:44:37;28.33;;;12.60;;
23410;SDS011;11878;51.774;7.220;2024-03-07T07:47:39;25.90;;;13.27;;
23410;SDS011;11878;51.774;7.220;2024-03-07T07:50:44;31.33;;;13.70;;
23410;SDS011;11878;51.774;7.220;2024-03-07T07:53:46;27.67;;;12.83;;
23410;SDS011;11878;51.774;7.220;2024-03-07T07:56:48;28.47;;;13.97;;
23410;SDS011;11878;51.774;7.220;2024-03-07T07:59:50;26.87;;;12.70;;
23410;SDS011;11878;51.774;7.220;2024-03-07T08:03:01;28.47;;;12.60;;
23410;SDS011;11878;51.774;7.220;2024-03-07T08:06:05;24.43;;;12.37;;
23410;SDS011;11878;51.774;7.220;2024-03-07T08:09:07;32.93;;;11.90;;
23410;SDS011;11878;51.774;7.220;2024-03-07T08:12:11;25.13;;;12.87;;
23410;SDS011;11878;51.774;7.220;2024-03-07T08:15:13;22.97;;;12.53;;
23410;SDS011;11878;51.774;7.220;2024-03-07T08:18:15;24.43;;;12.03;;
23410;SDS011;11878;51.774;7.220;2024-03-07T08:21:18;29.57;;;13.07;;
23410;SDS011;11878;51.774;7.220;2024-03-07T08:24:20;24.97;;;12.87;;
23410;SDS011;11878;51.774;7.220;2024-03-07T08:27:22;26.77;;;13.50;;
23410;SDS011;11878;51.774;7.220;2024-03-07T08:30:24;23.40;;;11.53;;
23410;SDS011;11878;51.774;7.220;2024-03-07T08:33:28;26.30;;;12.20;;
23410;SDS011;11878;51.774;7.220;2024-03-07T08:36:30;25.07;;;12.47;;
23410;SDS011;11878;51.774;7.220;2024-03-07T08:39:32;26.50;;;12.43;;
23410;SDS011;11878;51.774;7.220;2024-03-07T08:42:34;26.20;;;13.50;;
23410;SDS011;11878;51.774;7.220;2024-03-07T08:45:36;26.80;;;12.63;;
23410;SDS011;11878;51.774;7.220;2024-03-07T08:48:38;28.53;;;13.87;;
23410;SDS011;11878;51.774;7.220;2024-03-07T08:51:40;30.20;;;12.73;;
23410;SDS011;11878;51.774;7.220;2024-03-07T08:54:41;25.27;;;12.33;;
23410;SDS011;11878;51.774;7.220;2024-03-07T08:57:45;25.97;;;12.37;;
23410;SDS011;11878;51.774;7.220;2024-03-07T09:00:49;25.87;;;12.27;;
23410;SDS011;11878;51.774;7.220;2024-03-07T09:03:53;22.67;;;11.80;;
23410;SDS011;11878;51.774;7.220;2024-03-07T09:06:55;31.07;;;12.97;;
23410;SDS011;11878;51.774;7.220;2024-03-07T09:09:57;27.63;;;13.53;;
23410;SDS011;11878;51.774;7.220;2024-03-07T09:12:59;24.97;;;13.00;;
23410;SDS011;11878;51.774;7.220;2024-03-07T09:16:01;25.33;;;13.17;;
23410;SDS011;11878;51.774;7.220;2024-03-07T09:19:08;26.30;;;12.20;;
23410;SDS011;11878;51.774;7.220;2024-03-07T09:22:15;22.70;;;10.77;;
23410;SDS011;11878;51.774;7.220;2024-03-07T09:25:17;24.10;;;12.20;;
23410;SDS011;11878;51.774;7.220;2024-03-07T09:28:20;25.50;;;12.70;;
23410;SDS011;11878;51.774;7.220;2024-03-07T09:31:23;25.33;;;12.20;;
23410;SDS011;11878;51.774;7.220;2024-03-07T09:34:25;26.50;;;12.80;;
23410;SDS011;11878;51.774;7.220;2024-03-07T09:37:27;24.47;;;12.27;;
23410;SDS011;11878;51.774;7.220;2024-03-07T09:40:29;25.03;;;13.47;;
23410;SDS011;11878;51.774;7.220;2024-03-07T09:43:35;25.50;;;12.07;;
23410;SDS011;11878;51.774;7.220;2024-03-07T09:46:40;23.37;;;11.90;;
23410;SDS011;11878;51.774;7.220;2024-03-07T09:49:42;22.23;;;11.67;;
23410;SDS011;11878;51.774;7.220;2024-03-07T09:52:45;26.17;;;11.97;;
23410;SDS011;11878;51.774;7.220;2024-03-07T09:55:51;25.97;;;12.73;;
23410;SDS011;11878;51.774;7.220;2024-03-07T09:58:56;25.57;;;11.00;;
23410;SDS011;11878;51.774;7.220;2024-03-07T10:01:59;20.83;;;11.10;;
23410;SDS011;11878;51.774;7.220;2024-03-07T10:05:01;21.50;;;10.70;;
23410;SDS011;11878;51.774;7.220;2024-03-07T10:08:06;24.47;;;12.17;;
23410;SDS011;11878;51.774;7.220;2024-03-07T10:11:12;25.80;;;11.93;;
23410;SDS011;11878;51.774;7.220;2024-03-07T10:14:15;25.93;;;11.50;;
23410;SDS011;11878;51.774;7.220;2024-03-07T10:17:17;25.50;;;12.17;;
23410;SDS011;11878;51.774;7.220;2024-03-07T10:20:20;21.93;;;10.67;;
23410;SDS011;11878;51.774;7.220;2024-03-07T10:23:24;22.97;;;11.33;;
23410;SDS011;11878;51.774;7.220;2024-03-07T10:26:26;19.13;;;11.40;;
23410;SDS011;11878;51.774;7.220;2024-03-07T10:29:29;20.20;;;10.97;;
23410;SDS011;11878;51.774;7.220;2024-03-07T10:32:31;21.90;;;11.03;;
23410;SDS011;11878;51.774;7.220;2024-03-07T10:35:33;20.47;;;10.33;;
23410;SDS011;11878;51.774;7.220;2024-03-07T10:38:36;27.30;;;11.93;;
23410;SDS011;11878;51.774;7.220;2024-03-07T10:41:41;20.77;;;11.63;;
23410;SDS011;11878;51.774;7.220;2024-03-07T10:44:45;20.80;;;11.50;;
23410;SDS011;11878;51.774;7.220;2024-03-07T10:47:55;21.67;;;11.30;;
23410;SDS011;11878;51.774;7.220;2024-03-07T10:57:57;23.67;;;11.63;;
23410;SDS011;11878;51.774;7.220;2024-03-07T11:01:22;21.57;;;11.20;;
23410;SDS011;11878;51.774;7.220;2024-03-07T11:04:26;22.07;;;11.27;;
23410;SDS011;11878;51.774;7.220;2024-03-07T11:07:30;20.30;;;10.40;;
23410;SDS011;11878;51.774;7.220;2024-03-07T11:10:32;20.33;;;10.30;;
23410;SDS011;11878;51.774;7.220;2024-03-07T11:13:36;23.37;;;11.37;;
23410;SDS011;11878;51.774;7.220;2024-03-07T11:16:39;23.97;;;10.77;;
23410;SDS011;11878;51.774;7.220;2024-03-07T11:19:42;23.30;;;10.90;;
23410;SDS011;11878;51.774;7.220;2024-03-07T11:22:47;24.23;;;10.77;;
23410;SDS011;11878;51.774;7.220;2024-03-07T11:25:49;24.40;;;10.57;;
23410;SDS011;11878;51.774;7.220;2024-03-07T11:28:50;23.00;;;10.70;;
23410;SDS011;11878;51.774;7.220;2024-03-07T11:31:53;15.87;;;9.60;;
23410;SDS011;11878;51.774;7.220;2024-03-07T11:34:56;21.27;;;11.07;;
23410;SDS011;11878;51.774;7.220;2024-03-07T11:37:58;23.03;;;10.90;;
23410;SDS011;11878;51.774;7.220;2024-03-07T11:41:00;21.73;;;11.63;;
23410;SDS011;11878;51.774;7.220;2024-03-07T11:44:03;21.10;;;11.33;;
23410;SDS011;11878;51.774;7.220;2024-03-07T11:47:06;21.50;;;11.27;;
23410;SDS011;11878;51.774;7.220;2024-03-07T11:50:12;27.43;;;11.73;;
23410;SDS011;11878;51.774;7.220;2024-03-07T11:53:14;21.60;;;11.23;;
23410;SDS011;11878;51.774;7.220;2024-03-07T11:56:17;24.03;;;12.77;;
23410;SDS011;11878;51.774;7.220;2024-03-07T11:59:19;24.03;;;12.20;;
23410;SDS011;11878;51.774;7.220;2024-03-07T12:02:21;22.77;;;11.77;;
23410;SDS011;11878;51.774;7.220;2024-03-07T12:05:24;25.97;;;12.43;;
23410;SDS011;11878;51.774;7.220;2024-03-07T12:08:28;21.50;;;12.07;;
23410;SDS011;11878;51.774;7.220;2024-03-07T12:11:31;21.63;;;11.83;;
23410;SDS011;11878;51.774;7.220;2024-03-07T12:14:33;20.23;;;11.47;;
23410;SDS011;11878;51.774;7.220;2024-03-07T12:17:35;22.93;;;11.57;;
23410;SDS011;11878;51.774;7.220;2024-03-07T12:20:38;19.50;;;11.63;;
23410;SDS011;11878;51.774;7.220;2024-03-07T12:23:42;22.60;;;11.70;;
23410;SDS011;11878;51.774;7.220;2024-03-07T12:26:44;21.87;;;11.63;;
23410;SDS011;11878;51.774;7.220;2024-03-07T12:29:47;22.73;;;11.40;;
23410;SDS011;11878;51.774;7.220;2024-03-07T12:32:50;22.20;;;11.27;;
23410;SDS011;11878;51.774;7.220;2024-03-07T12:35:53;24.30;;;11.57;;
23410;SDS011;11878;51.774;7.220;2024-03-07T12:39:02;20.80;;;10.57;;
23410;SDS011;11878;51.774;7.220;2024-03-07T12:42:26;21.77;;;10.27;;
23410;SDS011;11878;51.774;7.220;2024-03-07T12:45:31;19.03;;;10.77;;
23410;SDS011;11878;51.774;7.220;2024-03-07T12:48:35;19.63;;;10.90;;
23410;SDS011;11878;51.774;7.220;2024-03-07T12:51:40;19.77;;;10.23;;
23410;SDS011;11878;51.774;7.220;2024-03-07T12:54:45;21.10;;;9.77;;
23410;SDS011;11878;51.774;7.220;2024-03-07T12:57:49;22.07;;;11.10;;
23410;SDS011;11878;51.774;7.220;2024-03-07T13:00:52;23.57;;;9.67;;
23410;SDS011;11878;51.774;7.220;2024-03-07T13:03:54;18.53;;;9.73;;
23410;SDS011;11878;51.774;7.220;2024-03-07T13:06:56;20.10;;;10.07;;
23410;SDS011;11878;51.774;7.220;2024-03-07T13:10:00;18.67;;;9.00;;
23410;SDS011;11878;51.774;7.220;2024-03-07T13:13:03;19.20;;;9.33;;
23410;SDS011;11878;51.774;7.220;2024-03-07T13:16:06;17.57;;;8.93;;
23410;SDS011;11878;51.774;7.220;2024-03-07T13:19:08;20.87;;;9.93;;
23410;SDS011;11878;51.774;7.220;2024-03-07T13:22:13;17.37;;;9.67;;
23410;SDS011;11878;51.774;7.220;2024-03-07T13:25:19;20.00;;;9.33;;
23410;SDS011;11878;51.774;7.220;2024-03-07T13:28:24;18.83;;;9.43;;
23410;SDS011;11878;51.774;7.220;2024-03-07T13:31:27;21.37;;;9.27;;
23410;SDS011;11878;51.774;7.220;2024-03-07T13:34:31;13.73;;;8.30;;
23410;SDS011;11878;51.774;7.220;2024-03-07T13:37:33;18.77;;;9.83;;
23410;SDS011;11878;51.774;7.220;2024-03-07T13:40:37;19.00;;;9.87;;
23410;SDS011;11878;51.774;7.220;2024-03-07T13:43:41;20.27;;;9.10;;
23410;SDS011;11878;51.774;7.220;2024-03-07T13:46:43;18.87;;;9.67;;
23410;SDS011;11878;51.774;7.220;2024-03-07T13:49:45;17.67;;;9.37;;
23410;SDS011;11878;51.774;7.220;2024-03-07T13:52:47;18.13;;;9.70;;
23410;SDS011;11878;51.774;7.220;2024-03-07T13:56:28;22.33;;;9.80;;
23410;SDS011;11878;51.774;7.220;2024-03-07T13:59:50;21.67;;;9.77;;
23410;SDS011;11878;51.774;7.220;2024-03-07T14:03:26;19.80;;;9.37;;
23410;SDS011;11878;51.774;7.220;2024-03-07T14:13:27;16.17;;;8.43;;
23410;SDS011;11878;51.774;7.220;2024-03-07T14:16:52;20.40;;;9.60;;
23410;SDS011;11878;51.774;7.220;2024-03-07T14:27:25;18.40;;;9.47;;
23410;SDS011;11878;51.774;7.220;2024-03-07T14:30:52;20.90;;;9.37;;
23410;SDS011;11878;51.774;7.220;2024-03-07T14:34:12;18.23;;;9.33;;
23410;SDS011;11878;51.774;7.220;2024-03-07T14:40:56;19.50;;;9.10;;
23410;SDS011;11878;51.774;7.220;2024-03-07T14:43:59;21.90;;;10.47;;
23410;SDS011;11878;51.774;7.220;2024-03-07T14:47:02;20.57;;;10.57;;
23410;SDS011;11878;51.774;7.220;2024-03-07T14:50:08;21.33;;;10.57;;
23410;SDS011;11878;51.774;7.220;2024-03-07T14:53:12;21.30;;;10.47;;
23410;SDS011;11878;51.774;7.220;2024-03-07T14:56:15;29.53;;;11.47;;
23410;SDS011;11878;51.774;7.220;2024-03-07T14:59:16;20.63;;;10.60;;
23410;SDS011;11878;51.774;7.220;2024-03-07T15:02:19;25.07;;;11.40;;
23410;SDS011;11878;51.774;7.220;2024-03-07T15:05:22;27.80;;;11.43;;
23410;SDS011;11878;51.774;7.220;2024-03-07T15:08:26;28.97;;;11.47;;
23410;SDS011;11878;51.774;7.220;2024-03-07T15:14:35;27.37;;;10.83;;
23410;SDS011;11878;51.774;7.220;2024-03-07T15:17:41;22.97;;;10.03;;
23410;SDS011;11878;51.774;7.220;2024-03-07T15:20:43;25.83;;;10.47;;
23410;SDS011;11878;51.774;7.220;2024-03-07T15:23:47;27.07;;;10.47;;
23410;SDS011;11878;51.774;7.220;2024-03-07T15:26:49;27.77;;;11.47;;
23410;SDS011;11878;51.774;7.220;2024-03-07T15:29:51;29.77;;;11.37;;
23410;SDS011;11878;51.774;7.220;2024-03-07T15:32:53;26.63;;;10.33;;
23410;SDS011;11878;51.774;7.220;2024-03-07T15:35:55;25.33;;;10.20;;
23410;SDS011;11878;51.774;7.220;2024-03-07T15:38:57;26.07;;;11.00;;
23410;SDS011;11878;51.774;7.220;2024-03-07T15:42:00;23.93;;;10.67;;
23410;SDS011;11878;51.774;7.220;2024-03-07T15:45:02;23.23;;;10.53;;
23410;SDS011;11878;51.774;7.220;2024-03-07T15:48:12;28.97;;;11.47;;
23410;SDS011;11878;51.774;7.220;2024-03-07T15:51:14;26.00;;;9.93;;
23410;SDS011;11878;51.774;7.220;2024-03-07T15:54:16;22.33;;;10.37;;
23410;SDS011;11878;51.774;7.220;2024-03-07T15:57:21;23.53;;;9.27;;
23410;SDS011;11878;51.774;7.220;2024-03-07T16:00:24;24.63;;;9.03;;
23410;SDS011;11878;51.774;7.220;2024-03-07T16:03:27;25.20;;;11.63;;
23410;SDS011;11878;51.774;7.220;2024-03-07T16:06:29;26.27;;;10.60;;
23410;SDS011;11878;51.774;7.220;2024-03-07T16:09:32;24.00;;;10.87;;
23410;SDS011;11878;51.774;7.220;2024-03-07T16:12:34;24.17;;;11.30;;
23410;SDS011;11878;51.774;7.220;2024-03-07T16:15:36;26.07;;;11.07;;
23410;SDS011;11878;51.774;7.220;2024-03-07T16:18:43;20.67;;;9.60;;
23410;SDS011;11878;51.774;7.220;2024-03-07T16:21:45;24.87;;;10.17;;
23410;SDS011;11878;51.774;7.220;2024-03-07T16:24:46;27.97;;;10.80;;
23410;SDS011;11878;51.774;7.220;2024-03-07T16:27:49;30.50;;;11.87;;
23410;SDS011;11878;51.774;7.220;2024-03-07T16:30:52;26.20;;;9.93;;
23410;SDS011;11878;51.774;7.220;2024-03-07T16:33:56;27.53;;;10.73;;
23410;SDS011;11878;51.774;7.220;2024-03-07T16:37:00;24.37;;;10.47;;
23410;SDS011;11878;51.774;7.220;2024-03-07T16:40:01;23.20;;;11.27;;
23410;SDS011;11878;51.774;7.220;2024-03-07T16:43:03;32.13;;;11.53;;
23410;SDS011;11878;51.774;7.220;2024-03-07T16:46:09;30.03;;;12.13;;
23410;SDS011;11878;51.774;7.220;2024-03-07T16:49:11;29.53;;;11.23;;
23410;SDS011;11878;51.774;7.220;2024-03-07T16:52:15;29.17;;;12.90;;
23410;SDS011;11878;51.774;7.220;2024-03-07T16:55:17;29.77;;;11.90;;
23410;SDS011;11878;51.774;7.220;2024-03-07T16:58:22;29.87;;;11.90;;
23410;SDS011;11878;51.774;7.220;2024-03-07T17:01:24;31.67;;;12.63;;
23410;SDS011;11878;51.774;7.220;2024-03-07T17:04:27;32.83;;;13.27;;
23410;SDS011;11878;51.774;7.220;2024-03-07T17:07:28;29.90;;;12.40;;
23410;SDS011;11878;51.774;7.220;2024-03-07T17:10:32;31.23;;;12.73;;
23410;SDS011;11878;51.774;7.220;2024-03-07T17:13:37;32.37;;;13.20;;
23410;SDS011;11878;51.774;7.220;2024-03-07T17:16:41;26.50;;;11.77;;
23410;SDS011;11878;51.774;7.220;2024-03-07T17:19:44;28.53;;;12.83;;
23410;SDS011;11878;51.774;7.220;2024-03-07T17:22:48;30.80;;;12.73;;
23410;SDS011;11878;51.774;7.220;2024-03-07T17:25:52;30.73;;;12.10;;
23410;SDS011;11878;51.774;7.220;2024-03-07T17:28:57;37.90;;;13.43;;
23410;SDS011;11878;51.774;7.220;2024-03-07T17:31:59;36.23;;;12.47;;
23410;SDS011;11878;51.774;7.220;2024-03-07T17:35:01;38.07;;;14.33;;
23410;SDS011;11878;51.774;7.220;2024-03-07T17:38:04;28.90;;;12.20;;
23410;SDS011;11878;51.774;7.220;2024-03-07T17:41:05;28.23;;;12.27;;
23410;SDS011;11878;51.774;7.220;2024-03-07T17:44:07;30.40;;;12.23;;
23410;SDS011;11878;51.774;7.220;2024-03-07T17:47:16;32.07;;;11.80;;
23410;SDS011;11878;51.774;7.220;2024-03-07T17:50:19;34.13;;;12.90;;
23410;SDS011;11878;51.774;7.220;2024-03-07T17:53:23;36.63;;;13.87;;
23410;SDS011;11878;51.774;7.220;2024-03-07T17:56:27;29.33;;;12.33;;
23410;SDS011;11878;51.774;7.220;2024-03-07T17:59:29;31.70;;;12.87;;
23410;SDS011;11878;51.774;7.220;2024-03-07T18:02:31;29.83;;;11.77;;
23410;SDS011;11878;51.774;7.220;2024-03-07T18:05:33;34.33;;;13.57;;
23410;SDS011;11878;51.774;7.220;2024-03-07T18:08:42;23.77;;;10.93;;
23410;SDS011;11878;51.774;7.220;2024-03-07T18:11:56;38.60;;;14.13;;
23410;SDS011;11878;51.774;7.220;2024-03-07T18:15:00;32.40;;;13.10;;
23410;SDS011;11878;51.774;7.220;2024-03-07T18:18:21;32.10;;;13.30;;
23410;SDS011;11878;51.774;7.220;2024-03-07T18:21:26;36.73;;;14.47;;
23410;SDS011;11878;51.774;7.220;2024-03-07T18:24:30;31.33;;;12.23;;